sensor_id;sensor_type;location;lat;lon;timestamp;pressure;altitude;pressure_sealevel;temperature;humidity
50977;BME280;36992;48.200;12.418;2022-09-09T00:01:22;96540.19;;;20.66;50.98
50977;BME280;36992;48.200;12.418;2022-09-09T00:04:00;96538.63;;;20.65;51.02
50977;BME280;36992;48.200;12.418;2022-09-09T00:06:31;96536.97;;;20.60;51.30
50977;BME280;36992;48.200;12.418;2022-09-09T00:09:03;96535.41;;;20.59;51.29
50977;BME280;36992;48.200;12.418;2022-09-09T00:11:36;96541.66;;;20.60;51.15
50977;BME280;36992;48.200;12.418;2022-09-09T00:14:13;96534.59;;;20.59;50.87
50977;BME280;36992;48.200;12.418;2022-09-09T00:16:49;96531.44;;;20.57;51.43
50977;BME280;36992;48.200;12.418;2022-09-09T00:19:21;96530.22;;;20.54;51.52
50977;BME280;36992;48.200;12.418;2022-09-09T00:21:54;96534.88;;;20.54;51.06
50977;BME280;36992;48.200;12.418;2022-09-09T00:24:38;96527.84;;;20.53;50.82
50977;BME280;36992;48.200;12.418;2022-09-09T00:27:19;96525.03;;;20.49;50.75
50977;BME280;36992;48.200;12.418;2022-09-09T00:29:52;96521.44;;;20.45;51.19
50977;BME280;36992;48.200;12.418;2022-09-09T00:32:22;96514.72;;;20.42;50.69
50977;BME280;36992;48.200;12.418;2022-09-09T00:34:53;96517.06;;;20.40;50.98
50977;BME280;36992;48.200;12.418;2022-09-09T00:37:22;96521.66;;;20.36;51.11
50977;BME280;36992;48.200;12.418;2022-09-09T00:39:53;96519.72;;;20.37;51.36
50977;BME280;36992;48.200;12.418;2022-09-09T00:42:24;96520.88;;;20.35;51.07
50977;BME280;36992;48.200;12.418;2022-09-09T00:44:58;96519.31;;;20.34;50.58
50977;BME280;36992;48.200;12.418;2022-09-09T00:47:46;96524.78;;;20.34;50.86
50977;BME280;36992;48.200;12.418;2022-09-09T00:50:28;96512.16;;;20.30;50.55
50977;BME280;36992;48.200;12.418;2022-09-09T00:53:05;96517.56;;;20.26;51.08
50977;BME280;36992;48.200;12.418;2022-09-09T00:55:42;96524.53;;;20.24;50.41
50977;BME280;36992;48.200;12.418;2022-09-09T00:58:12;96532.25;;;20.18;51.40
50977;BME280;36992;48.200;12.418;2022-09-09T01:00:42;96529.53;;;20.18;50.88
50977;BME280;36992;48.200;12.418;2022-09-09T01:03:19;96540.47;;;20.18;51.19
50977;BME280;36992;48.200;12.418;2022-09-09T01:05:59;96544.69;;;20.15;51.33
50977;BME280;36992;48.200;12.418;2022-09-09T01:08:39;96542.31;;;20.14;51.34
50977;BME280;36992;48.200;12.418;2022-09-09T01:11:14;96540.72;;;20.13;51.42
50977;BME280;36992;48.200;12.418;2022-09-09T01:13:45;96543.03;;;20.11;51.29
50977;BME280;36992;48.200;12.418;2022-09-09T01:16:14;96539.44;;;20.06;52.00
50977;BME280;36992;48.200;12.418;2022-09-09T01:18:44;96535.19;;;20.09;51.54
50977;BME280;36992;48.200;12.418;2022-09-09T01:21:18;96534.03;;;20.10;51.95
50977;BME280;36992;48.200;12.418;2022-09-09T01:24:04;96525.50;;;20.12;51.54
50977;BME280;36992;48.200;12.418;2022-09-09T01:26:37;96535.63;;;20.11;51.45
50977;BME280;36992;48.200;12.418;2022-09-09T01:29:07;96533.28;;;20.10;51.85
50977;BME280;36992;48.200;12.418;2022-09-09T01:31:37;96540.31;;;20.11;51.93
50977;BME280;36992;48.200;12.418;2022-09-09T01:34:09;96536.44;;;20.12;51.46
50977;BME280;36992;48.200;12.418;2022-09-09T01:36:39;96537.56;;;20.11;51.65
50977;BME280;36992;48.200;12.418;2022-09-09T01:39:09;96521.88;;;20.07;51.52
50977;BME280;36992;48.200;12.418;2022-09-09T01:41:38;96521.88;;;20.07;51.46
50977;BME280;36992;48.200;12.418;2022-09-09T01:44:05;96529.66;;;20.05;51.10
50977;BME280;36992;48.200;12.418;2022-09-09T01:46:32;96528.06;;;20.04;51.59
50977;BME280;36992;48.200;12.418;2022-09-09T01:49:00;96524.19;;;20.05;51.47
50977;BME280;36992;48.200;12.418;2022-09-09T01:51:28;96528.78;;;20.01;52.06
50977;BME280;36992;48.200;12.418;2022-09-09T01:53:55;96524.47;;;20.00;51.80
50977;BME280;36992;48.200;12.418;2022-09-09T01:56:31;96526.91;;;20.05;51.64
50977;BME280;36992;48.200;12.418;2022-09-09T01:59:10;96518.72;;;20.05;51.44
50977;BME280;36992;48.200;12.418;2022-09-09T02:01:51;96521.47;;;20.05;51.39
50977;BME280;36992;48.200;12.418;2022-09-09T02:04:30;96536.28;;;20.04;51.70
50977;BME280;36992;48.200;12.418;2022-09-09T02:07:01;96540.44;;;19.98;52.21
50977;BME280;36992;48.200;12.418;2022-09-09T02:09:30;96532.66;;;20.00;52.26
50977;BME280;36992;48.200;12.418;2022-09-09T02:12:01;96532.66;;;20.00;51.85
50977;BME280;36992;48.200;12.418;2022-09-09T02:14:36;96536.97;;;20.01;51.78
50977;BME280;36992;48.200;12.418;2022-09-09T02:17:08;96543.59;;;20.00;51.94
50977;BME280;36992;48.200;12.418;2022-09-09T02:19:39;96540.44;;;19.98;51.25
50977;BME280;36992;48.200;12.418;2022-09-09T02:22:09;96534.88;;;19.94;51.84
50977;BME280;36992;48.200;12.418;2022-09-09T02:24:37;96539.53;;;19.94;51.59
50977;BME280;36992;48.200;12.418;2022-09-09T02:27:06;96543.44;;;19.93;52.02
50977;BME280;36992;48.200;12.418;2022-09-09T02:29:38;96552.06;;;19.95;51.92
50977;BME280;36992;48.200;12.418;2022-09-09T02:32:09;96539.53;;;19.94;51.87
50977;BME280;36992;48.200;12.418;2022-09-09T02:34:42;96544.59;;;19.92;51.99
50977;BME280;36992;48.200;12.418;2022-09-09T02:37:11;96545.75;;;19.91;52.47
50977;BME280;36992;48.200;12.418;2022-09-09T02:39:38;96540.63;;;19.89;52.30
50977;BME280;36992;48.200;12.418;2022-09-09T02:42:05;96535.50;;;19.88;52.44
50977;BME280;36992;48.200;12.418;2022-09-09T02:44:33;96537.09;;;19.89;52.60
50977;BME280;36992;48.200;12.418;2022-09-09T02:47:14;96541.50;;;19.93;51.84
50977;BME280;36992;48.200;12.418;2022-09-09T02:49:54;96531.34;;;19.94;51.90
50977;BME280;36992;48.200;12.418;2022-09-09T02:52:30;96536.38;;;19.92;52.38
50977;BME280;36992;48.200;12.418;2022-09-09T02:54:59;96537.84;;;20.05;51.51
50977;BME280;36992;48.200;12.418;2022-09-09T02:57:31;96536.81;;;19.94;52.50
50977;BME280;36992;48.200;12.418;2022-09-09T03:00:00;96541.44;;;19.90;52.62
50977;BME280;36992;48.200;12.418;2022-09-09T03:02:28;96546.50;;;19.91;52.25
50977;BME280;36992;48.200;12.418;2022-09-09T03:04:55;96548.81;;;19.89;52.67
50977;BME280;36992;48.200;12.418;2022-09-09T03:07:22;96538.69;;;19.90;52.57
50977;BME280;36992;48.200;12.418;2022-09-09T03:09:49;96544.94;;;19.90;52.70
50977;BME280;36992;48.200;12.418;2022-09-09T03:12:15;96532.06;;;19.91;52.43
50977;BME280;36992;48.200;12.418;2022-09-09T03:14:42;96530.13;;;19.91;52.35
50977;BME280;36992;48.200;12.418;2022-09-09T03:17:11;96525.44;;;19.92;52.71
50977;BME280;36992;48.200;12.418;2022-09-09T03:19:39;96537.28;;;19.96;52.30
50977;BME280;36992;48.200;12.418;2022-09-09T03:22:06;96532.91;;;19.95;52.32
50977;BME280;36992;48.200;12.418;2022-09-09T03:24:32;96535.66;;;19.95;52.10
50977;BME280;36992;48.200;12.418;2022-09-09T03:26:59;96530.19;;;19.95;52.07
50977;BME280;36992;48.200;12.418;2022-09-09T03:29:26;96526.34;;;19.96;52.17
50977;BME280;36992;48.200;12.418;2022-09-09T03:31:53;96520.88;;;19.96;52.09
50977;BME280;36992;48.200;12.418;2022-09-09T03:34:19;96517.66;;;19.94;52.30
50977;BME280;36992;48.200;12.418;2022-09-09T03:36:47;96520.88;;;19.96;52.13
50977;BME280;36992;48.200;12.418;2022-09-09T03:39:14;96523.13;;;19.94;52.30
50977;BME280;36992;48.200;12.418;2022-09-09T03:41:41;96527.03;;;19.93;52.29
50977;BME280;36992;48.200;12.418;2022-09-09T03:44:10;96522.72;;;19.92;52.35
50977;BME280;36992;48.200;12.418;2022-09-09T03:46:37;96517.59;;;19.90;52.37
50977;BME280;36992;48.200;12.418;2022-09-09T03:49:03;96506.66;;;19.90;52.49
50977;BME280;36992;48.200;12.418;2022-09-09T03:51:30;96498.81;;;19.89;52.30
50977;BME280;36992;48.200;12.418;2022-09-09T03:53:58;96494.97;;;19.90;52.41
50977;BME280;36992;48.200;12.418;2022-09-09T03:56:24;96491.00;;;19.87;52.45
50977;BME280;36992;48.200;12.418;2022-09-09T03:58:51;96491.00;;;19.87;52.40
50977;BME280;36992;48.200;12.418;2022-09-09T04:01:17;96485.53;;;19.87;52.45
50977;BME280;36992;48.200;12.418;2022-09-09T04:03:44;96475.38;;;19.88;52.49
50977;BME280;36992;48.200;12.418;2022-09-09T04:06:12;96471.50;;;19.89;52.53
50977;BME280;36992;48.200;12.418;2022-09-09T04:08:40;96473.03;;;19.86;52.46
50977;BME280;36992;48.200;12.418;2022-09-09T04:11:09;96477.75;;;19.89;52.23
50977;BME280;36992;48.200;12.418;2022-09-09T04:13:36;96480.84;;;19.88;52.36
50977;BME280;36992;48.200;12.418;2022-09-09T04:16:04;96468.69;;;19.85;52.41
50977;BME280;36992;48.200;12.418;2022-09-09T04:18:31;96477.69;;;19.86;52.32
50977;BME280;36992;48.200;12.418;2022-09-09T04:20:58;96485.09;;;19.85;52.71
50977;BME280;36992;48.200;12.418;2022-09-09T04:23:26;96476.09;;;19.85;52.51
50977;BME280;36992;48.200;12.418;2022-09-09T04:25:55;96476.09;;;19.85;52.40
50977;BME280;36992;48.200;12.418;2022-09-09T04:28:26;96476.94;;;19.89;52.05
50977;BME280;36992;48.200;12.418;2022-09-09T04:30:52;96481.56;;;19.85;52.63
50977;BME280;36992;48.200;12.418;2022-09-09T04:33:19;96484.31;;;19.85;52.31
50977;BME280;36992;48.200;12.418;2022-09-09T04:35:47;96493.28;;;19.85;52.54
50977;BME280;36992;48.200;12.418;2022-09-09T04:38:15;96495.25;;;19.85;52.48
50977;BME280;36992;48.200;12.418;2022-09-09T04:40:42;96490.94;;;19.84;52.55
50977;BME280;36992;48.200;12.418;2022-09-09T04:43:09;96488.19;;;19.84;52.18
50977;BME280;36992;48.200;12.418;2022-09-09T04:45:37;96486.25;;;19.84;52.24
50977;BME280;36992;48.200;12.418;2022-09-09T04:48:05;96495.59;;;19.83;52.80
50977;BME280;36992;48.200;12.418;2022-09-09T04:50:32;96496.41;;;19.84;52.61
50977;BME280;36992;48.200;12.418;2022-09-09T04:53:00;96496.41;;;19.84;52.50
50977;BME280;36992;48.200;12.418;2022-09-09T04:55:26;96486.59;;;19.82;52.58
50977;BME280;36992;48.200;12.418;2022-09-09T04:57:53;96494.78;;;19.82;52.42
50977;BME280;36992;48.200;12.418;2022-09-09T05:00:20;96497.53;;;19.82;52.26
50977;BME280;36992;48.200;12.418;2022-09-09T05:02:48;96492.50;;;19.85;52.41
50977;BME280;36992;48.200;12.418;2022-09-09T05:05:15;96490.13;;;19.83;52.42
50977;BME280;36992;48.200;12.418;2022-09-09T05:07:42;96498.69;;;19.81;52.05
50977;BME280;36992;48.200;12.418;2022-09-09T05:10:08;96495.94;;;19.81;52.30
50977;BME280;36992;48.200;12.418;2022-09-09T05:12:35;96494.00;;;19.82;52.41
50977;BME280;36992;48.200;12.418;2022-09-09T05:15:02;96491.63;;;19.80;51.97
50977;BME280;36992;48.200;12.418;2022-09-09T05:17:29;96497.09;;;19.80;52.06
50977;BME280;36992;48.200;12.418;2022-09-09T05:19:57;96489.69;;;19.81;51.77
50977;BME280;36992;48.200;12.418;2022-09-09T05:22:24;96495.09;;;19.77;52.07
50977;BME280;36992;48.200;12.418;2022-09-09T05:24:51;96494.63;;;19.75;52.23
50977;BME280;36992;48.200;12.418;2022-09-09T05:27:18;96498.53;;;19.74;52.21
50977;BME280;36992;48.200;12.418;2022-09-09T05:29:45;96494.22;;;19.73;52.32
50977;BME280;36992;48.200;12.418;2022-09-09T05:32:12;96486.03;;;19.73;52.28
50977;BME280;36992;48.200;12.418;2022-09-09T05:34:40;96488.31;;;19.71;52.42
50977;BME280;36992;48.200;12.418;2022-09-09T05:37:08;96488.31;;;19.71;52.18
50977;BME280;36992;48.200;12.418;2022-09-09T05:39:34;96493.34;;;19.69;52.31
50977;BME280;36992;48.200;12.418;2022-09-09T05:42:03;96497.22;;;19.68;52.16
50977;BME280;36992;48.200;12.418;2022-09-09T05:44:30;96503.03;;;19.66;52.09
50977;BME280;36992;48.200;12.418;2022-09-09T05:46:57;96500.69;;;19.65;52.11
50977;BME280;36992;48.200;12.418;2022-09-09T05:49:24;96504.53;;;19.64;52.68
50977;BME280;36992;48.200;12.418;2022-09-09T05:51:51;96497.50;;;19.63;52.57
50977;BME280;36992;48.200;12.418;2022-09-09T05:54:19;96503.78;;;19.63;52.70
50977;BME280;36992;48.200;12.418;2022-09-09T05:56:46;96506.06;;;19.61;52.96
50977;BME280;36992;48.200;12.418;2022-09-09T05:59:15;96506.84;;;19.62;52.78
50977;BME280;36992;48.200;12.418;2022-09-09T06:01:42;96512.31;;;19.62;52.79
50977;BME280;36992;48.200;12.418;2022-09-09T06:04:09;96506.06;;;19.61;53.45
50977;BME280;36992;48.200;12.418;2022-09-09T06:06:37;96510.00;;;19.64;53.35
50977;BME280;36992;48.200;12.418;2022-09-09T06:09:06;96497.50;;;19.63;53.00
50977;BME280;36992;48.200;12.418;2022-09-09T06:11:37;96499.97;;;19.68;53.08
50977;BME280;36992;48.200;12.418;2022-09-09T06:14:04;96512.47;;;19.69;53.82
50977;BME280;36992;48.200;12.418;2022-09-09T06:16:33;96514.50;;;19.72;53.75
50977;BME280;36992;48.200;12.418;2022-09-09T06:19:00;96516.88;;;19.74;53.29
50977;BME280;36992;48.200;12.418;2022-09-09T06:21:29;96524.69;;;19.75;53.53
50977;BME280;36992;48.200;12.418;2022-09-09T06:23:56;96529.00;;;19.76;53.67
50977;BME280;36992;48.200;12.418;2022-09-09T06:26:24;96525.56;;;19.79;53.24
50977;BME280;36992;48.200;12.418;2022-09-09T06:28:54;96527.59;;;19.82;53.13
50977;BME280;36992;48.200;12.418;2022-09-09T06:31:22;96530.31;;;19.82;53.06
50977;BME280;36992;48.200;12.418;2022-09-09T06:33:50;96541.69;;;19.85;53.21
50977;BME280;36992;48.200;12.418;2022-09-09T06:36:19;96530.84;;;19.88;53.51
50977;BME280;36992;48.200;12.418;2022-09-09T06:38:46;96535.50;;;19.88;53.36
50977;BME280;36992;48.200;12.418;2022-09-09T06:41:14;96528.53;;;19.90;53.73
50977;BME280;36992;48.200;12.418;2022-09-09T06:43:42;96531.28;;;19.90;53.63
50977;BME280;36992;48.200;12.418;2022-09-09T06:46:12;96530.19;;;19.95;53.33
50977;BME280;36992;48.200;12.418;2022-09-09T06:48:38;96521.91;;;19.91;53.65
50977;BME280;36992;48.200;12.418;2022-09-09T06:51:08;96516.09;;;19.93;53.30
50977;BME280;36992;48.200;12.418;2022-09-09T06:53:37;96517.66;;;19.94;53.23
50977;BME280;36992;48.200;12.418;2022-09-09T06:56:19;96520.97;;;20.00;52.75
50977;BME280;36992;48.200;12.418;2022-09-09T06:58:47;96528.59;;;19.94;53.21
50977;BME280;36992;48.200;12.418;2022-09-09T07:01:16;96527.13;;;19.97;53.56
50977;BME280;36992;48.200;12.418;2022-09-09T07:03:46;96514.94;;;19.94;53.54
50977;BME280;36992;48.200;12.418;2022-09-09T07:06:14;96522.38;;;19.93;53.64
50977;BME280;36992;48.200;12.418;2022-09-09T07:08:42;96525.44;;;19.92;53.43
50977;BME280;36992;48.200;12.418;2022-09-09T07:11:09;96529.75;;;19.93;53.63
50977;BME280;36992;48.200;12.418;2022-09-09T07:13:36;96529.75;;;19.93;53.46
50977;BME280;36992;48.200;12.418;2022-09-09T07:16:03;96522.72;;;19.92;53.70
50977;BME280;36992;48.200;12.418;2022-09-09T07:18:32;96523.13;;;19.94;53.01
50977;BME280;36992;48.200;12.418;2022-09-09T07:21:00;96528.59;;;19.94;53.46
50977;BME280;36992;48.200;12.418;2022-09-09T07:23:27;96529.41;;;19.94;52.88
50977;BME280;36992;48.200;12.418;2022-09-09T07:25:55;96526.34;;;19.96;53.06
50977;BME280;36992;48.200;12.418;2022-09-09T07:28:21;96527.94;;;19.97;53.10
50977;BME280;36992;48.200;12.418;2022-09-09T07:30:55;96527.28;;;20.04;53.09
50977;BME280;36992;48.200;12.418;2022-09-09T07:33:22;96525.63;;;19.99;53.13
50977;BME280;36992;48.200;12.418;2022-09-09T07:38:17;96538.22;;;20.04;53.71
50977;BME280;36992;48.200;12.418;2022-09-09T07:40:44;96535.13;;;20.05;53.88
50977;BME280;36992;48.200;12.418;2022-09-09T07:43:10;96536.34;;;20.08;53.55
50977;BME280;36992;48.200;12.418;2022-09-09T07:45:37;96536.00;;;20.10;53.93
50977;BME280;36992;48.200;12.418;2022-09-09T07:48:06;96533.69;;;20.12;53.61
50977;BME280;36992;48.200;12.418;2022-09-09T07:50:32;96536.84;;;20.14;53.38
50977;BME280;36992;48.200;12.418;2022-09-09T07:53:00;96543.19;;;20.18;53.66
50977;BME280;36992;48.200;12.418;2022-09-09T07:55:27;96536.56;;;20.19;53.89
50977;BME280;36992;48.200;12.418;2022-09-09T07:57:55;96528.81;;;20.21;53.78
50977;BME280;36992;48.200;12.418;2022-09-09T08:00:22;96527.66;;;20.22;54.10
50977;BME280;36992;48.200;12.418;2022-09-09T08:02:49;96540.16;;;20.23;53.82
50977;BME280;36992;48.200;12.418;2022-09-09T08:05:15;96549.59;;;20.26;54.32
50977;BME280;36992;48.200;12.418;2022-09-09T08:07:43;96562.13;;;20.27;54.84
50977;BME280;36992;48.200;12.418;2022-09-09T08:10:10;96566.09;;;20.29;54.33
50977;BME280;36992;48.200;12.418;2022-09-09T08:12:39;96578.19;;;20.28;53.66
50977;BME280;36992;48.200;12.418;2022-09-09T08:15:06;96572.72;;;20.28;53.93
50977;BME280;36992;48.200;12.418;2022-09-09T08:17:33;96585.22;;;20.29;54.23
50977;BME280;36992;48.200;12.418;2022-09-09T08:19:59;96585.66;;;20.31;54.81
50977;BME280;36992;48.200;12.418;2022-09-09T08:22:30;96580.97;;;20.32;53.89
50977;BME280;36992;48.200;12.418;2022-09-09T08:24:57;96579.47;;;20.34;54.07
50977;BME280;36992;48.200;12.418;2022-09-09T08:27:24;96586.94;;;20.38;53.51
50977;BME280;36992;48.200;12.418;2022-09-09T08:29:51;96579.53;;;20.38;54.48
50977;BME280;36992;48.200;12.418;2022-09-09T08:32:18;96586.59;;;20.39;54.09
50977;BME280;36992;48.200;12.418;2022-09-09T08:34:45;96598.41;;;20.43;54.20
50977;BME280;36992;48.200;12.418;2022-09-09T08:37:11;96605.47;;;20.44;54.36
50977;BME280;36992;48.200;12.418;2022-09-09T08:39:38;96623.09;;;20.47;54.50
50977;BME280;36992;48.200;12.418;2022-09-09T08:42:17;96637.63;;;20.51;53.62
50977;BME280;36992;48.200;12.418;2022-09-09T08:44:59;96638.44;;;20.52;53.25
50977;BME280;36992;48.200;12.418;2022-09-09T08:47:36;96639.50;;;20.47;53.41
50977;BME280;36992;48.200;12.418;2022-09-09T08:50:16;96637.56;;;20.47;53.15
50977;BME280;36992;48.200;12.418;2022-09-09T08:52:51;96650.81;;;20.45;52.24
50977;BME280;36992;48.200;12.418;2022-09-09T08:55:24;96647.72;;;20.47;52.43
50977;BME280;36992;48.200;12.418;2022-09-09T08:57:55;96657.09;;;20.46;52.54
50977;BME280;36992;48.200;12.418;2022-09-09T09:00:29;96646.13;;;20.46;52.27
50977;BME280;36992;48.200;12.418;2022-09-09T09:03:05;96633.59;;;20.45;52.53
50977;BME280;36992;48.200;12.418;2022-09-09T09:05:37;96641.38;;;20.43;52.29
50977;BME280;36992;48.200;12.418;2022-09-09T09:08:17;96637.47;;;20.44;52.72
50977;BME280;36992;48.200;12.418;2022-09-09T09:10:50;96632.75;;;20.41;52.56
50977;BME280;36992;48.200;12.418;2022-09-09T09:13:18;96633.44;;;20.38;52.68
50977;BME280;36992;48.200;12.418;2022-09-09T09:15:50;96624.09;;;20.39;52.70
50977;BME280;36992;48.200;12.418;2022-09-09T09:18:18;96627.56;;;20.35;53.34
50977;BME280;36992;48.200;12.418;2022-09-09T09:20:50;96627.28;;;20.41;52.56
50977;BME280;36992;48.200;12.418;2022-09-09T09:23:22;96635.09;;;20.42;53.12
50977;BME280;36992;48.200;12.418;2022-09-09T09:25:50;96628.84;;;20.42;52.58
50977;BME280;36992;48.200;12.418;2022-09-09T09:28:22;96640.28;;;20.47;52.70
50977;BME280;36992;48.200;12.418;2022-09-09T09:30:55;96644.72;;;20.52;52.17
50977;BME280;36992;48.200;12.418;2022-09-09T09:33:26;96647.78;;;20.51;52.56
50977;BME280;36992;48.200;12.418;2022-09-09T09:35:54;96652.47;;;20.50;52.61
50977;BME280;36992;48.200;12.418;2022-09-09T09:38:22;96650.97;;;20.53;52.51
50977;BME280;36992;48.200;12.418;2022-09-09T09:40:50;96646.72;;;20.55;52.88
50977;BME280;36992;48.200;12.418;2022-09-09T09:43:24;96648.00;;;20.61;52.50
50977;BME280;36992;48.200;12.418;2022-09-09T09:45:53;96643.69;;;20.60;53.02
50977;BME280;36992;48.200;12.418;2022-09-09T09:48:19;96637.06;;;20.61;52.67
50977;BME280;36992;48.200;12.418;2022-09-09T09:50:48;96646.16;;;20.66;53.22
50977;BME280;36992;48.200;12.418;2022-09-09T09:53:24;96650.19;;;20.72;53.15
50977;BME280;36992;48.200;12.418;2022-09-09T09:55:55;96651.75;;;20.73;53.69
50977;BME280;36992;48.200;12.418;2022-09-09T09:58:22;96652.09;;;20.71;53.83
50977;BME280;36992;48.200;12.418;2022-09-09T10:00:51;96653.34;;;20.74;54.31
50977;BME280;36992;48.200;12.418;2022-09-09T10:03:27;96649.56;;;20.82;53.75
50977;BME280;36992;48.200;12.418;2022-09-09T10:05:55;96646.00;;;20.78;52.37
50977;BME280;36992;48.200;12.418;2022-09-09T10:08:23;96638.94;;;20.77;53.44
50977;BME280;36992;48.200;12.418;2022-09-09T10:11:05;96639.44;;;20.83;52.67
50977;BME280;36992;48.200;12.418;2022-09-09T10:13:47;96644.09;;;20.82;52.33
50977;BME280;36992;48.200;12.418;2022-09-09T10:16:31;96646.84;;;20.82;52.40
50977;BME280;36992;48.200;12.418;2022-09-09T10:19:05;96654.69;;;20.84;52.09
50977;BME280;36992;48.200;12.418;2022-09-09T10:21:48;96657.13;;;20.85;52.22
50977;BME280;36992;48.200;12.418;2022-09-09T10:24:33;96667.31;;;20.88;52.35
50977;BME280;36992;48.200;12.418;2022-09-09T10:27:06;96668.47;;;20.87;52.69
50977;BME280;36992;48.200;12.418;2022-09-09T10:29:53;96665.03;;;20.91;52.98
50977;BME280;36992;48.200;12.418;2022-09-09T10:32:35;96665.47;;;20.93;54.06
50977;BME280;36992;48.200;12.418;2022-09-09T10:35:10;96669.72;;;20.90;53.23
50977;BME280;36992;48.200;12.418;2022-09-09T10:37:47;96660.72;;;20.89;53.25
50977;BME280;36992;48.200;12.418;2022-09-09T10:40:27;96666.97;;;20.90;53.13
50977;BME280;36992;48.200;12.418;2022-09-09T10:43:13;96660.28;;;20.87;53.26
50977;BME280;36992;48.200;12.418;2022-09-09T10:45:52;96655.25;;;20.89;53.57
50977;BME280;36992;48.200;12.418;2022-09-09T10:48:37;96653.34;;;20.94;53.30
50977;BME280;36992;48.200;12.418;2022-09-09T10:51:21;96652.19;;;20.95;53.88
50977;BME280;36992;48.200;12.418;2022-09-09T10:53:54;96651.47;;;20.98;54.74
50977;BME280;36992;48.200;12.418;2022-09-09T10:56:26;96658.94;;;21.01;53.51
50977;BME280;36992;48.200;12.418;2022-09-09T10:58:58;96658.66;;;21.06;53.89
50977;BME280;36992;48.200;12.418;2022-09-09T11:01:29;96654.47;;;21.12;53.84
50977;BME280;36992;48.200;12.418;2022-09-09T11:04:02;96656.91;;;21.18;54.26
50977;BME280;36992;48.200;12.418;2022-09-09T11:06:39;96660.13;;;21.23;54.05
50977;BME280;36992;48.200;12.418;2022-09-09T11:09:15;96654.75;;;21.27;53.55
50977;BME280;36992;48.200;12.418;2022-09-09T11:11:46;96656.38;;;21.32;53.49
50977;BME280;36992;48.200;12.418;2022-09-09T11:14:20;96661.94;;;21.35;53.48
50977;BME280;36992;48.200;12.418;2022-09-09T11:16:50;96659.59;;;21.37;53.46
50977;BME280;36992;48.200;12.418;2022-09-09T11:19:23;96655.00;;;21.41;53.09
50977;BME280;36992;48.200;12.418;2022-09-09T11:21:55;96647.19;;;21.43;53.14
50977;BME280;36992;48.200;12.418;2022-09-09T11:24:26;96647.59;;;21.46;52.97
50977;BME280;36992;48.200;12.418;2022-09-09T11:26:57;96647.59;;;21.46;52.69
50977;BME280;36992;48.200;12.418;2022-09-09T11:29:43;96642.56;;;21.48;52.53
50977;BME280;36992;48.200;12.418;2022-09-09T11:32:29;96640.25;;;21.50;52.68
50977;BME280;36992;48.200;12.418;2022-09-09T11:35:12;96655.09;;;21.49;53.31
50977;BME280;36992;48.200;12.418;2022-09-09T11:38:01;96658.25;;;21.51;52.83
50977;BME280;36992;48.200;12.418;2022-09-09T11:40:32;96657.44;;;21.47;52.65
50977;BME280;36992;48.200;12.418;2022-09-09T11:43:02;96653.09;;;21.46;52.78
50977;BME280;36992;48.200;12.418;2022-09-09T11:45:32;96657.00;;;21.45;52.52
50977;BME280;36992;48.200;12.418;2022-09-09T11:48:01;96646.03;;;21.45;53.48
50977;BME280;36992;48.200;12.418;2022-09-09T11:50:34;96631.97;;;21.46;52.70
50977;BME280;36992;48.200;12.418;2022-09-09T11:53:18;96636.34;;;21.51;52.96
50977;BME280;36992;48.200;12.418;2022-09-09T11:56:04;96640.25;;;21.50;52.67
50977;BME280;36992;48.200;12.418;2022-09-09T11:58:38;96642.56;;;21.48;52.48
50977;BME280;36992;48.200;12.418;2022-09-09T12:01:25;96640.19;;;21.46;52.98
50977;BME280;36992;48.200;12.418;2022-09-09T12:06:43;96642.44;;;21.40;53.28
50977;BME280;36992;48.200;12.418;2022-09-09T12:09:18;96653.03;;;21.42;52.73
50977;BME280;36992;48.200;12.418;2022-09-09T12:11:46;96647.50;;;21.38;53.52
50977;BME280;36992;48.200;12.418;2022-09-09T12:14:20;96650.69;;;21.40;53.22
50977;BME280;36992;48.200;12.418;2022-09-09T12:16:48;96650.97;;;21.35;52.47
50977;BME280;36992;48.200;12.418;2022-09-09T12:19:18;96648.66;;;21.37;52.55
50977;BME280;36992;48.200;12.418;2022-09-09T12:21:51;96647.06;;;21.36;52.47
50977;BME280;36992;48.200;12.418;2022-09-09T12:24:27;96645.91;;;21.37;52.76
50977;BME280;36992;48.200;12.418;2022-09-09T12:26:58;96632.16;;;21.34;51.97
50977;BME280;36992;48.200;12.418;2022-09-09T12:29:32;96633.31;;;21.33;52.93
50977;BME280;36992;48.200;12.418;2022-09-09T12:32:06;96637.28;;;21.35;53.07
50977;BME280;36992;48.200;12.418;2022-09-09T12:34:39;96637.28;;;21.35;53.23
50977;BME280;36992;48.200;12.418;2022-09-09T12:37:14;96638.03;;;21.36;52.92
50977;BME280;36992;48.200;12.418;2022-09-09T12:39:47;96643.16;;;21.37;52.75
50977;BME280;36992;48.200;12.418;2022-09-09T12:42:17;96645.03;;;21.33;52.36
50977;BME280;36992;48.200;12.418;2022-09-09T12:44:51;96636.91;;;21.37;52.57
50977;BME280;36992;48.200;12.418;2022-09-09T12:47:18;96636.81;;;21.33;52.21
50977;BME280;36992;48.200;12.418;2022-09-09T12:49:47;96643.91;;;21.34;52.21
50977;BME280;36992;48.200;12.418;2022-09-09T12:52:20;96640.84;;;21.39;52.49
50977;BME280;36992;48.200;12.418;2022-09-09T12:54:50;96643.59;;;21.39;52.97
50977;BME280;36992;48.200;12.418;2022-09-09T12:57:19;96643.97;;;21.38;53.00
50977;BME280;36992;48.200;12.418;2022-09-09T12:59:50;96645.91;;;21.37;51.66
50977;BME280;36992;48.200;12.418;2022-09-09T13:02:20;96634.59;;;21.39;52.50
50977;BME280;36992;48.200;12.418;2022-09-09T13:04:47;96630.28;;;21.38;52.67
50977;BME280;36992;48.200;12.418;2022-09-09T13:07:16;96625.56;;;21.38;52.36
50977;BME280;36992;48.200;12.418;2022-09-09T13:09:43;96620.09;;;21.38;52.16
50977;BME280;36992;48.200;12.418;2022-09-09T13:12:15;96619.78;;;21.43;51.95
50977;BME280;36992;48.200;12.418;2022-09-09T13:14:44;96625.28;;;21.43;51.53